ETH1FL GOBD-GFLL
Flight info
| Callsign | ETH1FL |
|---|---|
| Flight time | 1h 10m |
| Altitude | 35000 |
| Route | BIDAV DCT POTOX UB600 GIA UB614 BIREL |
| Aircraft | B77W/H-SDE2E3FGHIJ3J5M1P2RWXYZ/SB1D1 |
Departure
| Time | 2026-05-07 11:20 |
|---|---|
| Airport | Blaise Diagne International Airport (GOBD) |
Arrival
| Time | 2026-05-07 12:31 |
|---|---|
| Airport | Lungi International Airport (GFLL) |
| Time | Latitude | Longitude | Altitude | Speed | Heading |
|---|---|---|---|---|---|
| 2026-05-07 10:53 | 14.67079 | -17.06858 | 303 ft | 0 kts | 89° |
| 2026-05-07 11:09 | 14.67079 | -17.06860 | 303 ft | 1 kts | 89° |
| 2026-05-07 11:09 | 14.67079 | -17.06878 | 303 ft | 3 kts | 89° |
| 2026-05-07 11:10 | 14.67079 | -17.06899 | 303 ft | 3 kts | 89° |
| 2026-05-07 11:10 | 14.67079 | -17.06920 | 303 ft | 3 kts | 89° |
| 2026-05-07 11:10 | 14.67078 | -17.06937 | 303 ft | 2 kts | 90° |
| 2026-05-07 11:10 | 14.67079 | -17.06955 | 303 ft | 3 kts | 108° |
| 2026-05-07 11:11 | 14.67084 | -17.06969 | 303 ft | 3 kts | 137° |
| 2026-05-07 11:11 | 14.67094 | -17.06977 | 303 ft | 3 kts | 169° |
| 2026-05-07 11:11 | 14.67113 | -17.06979 | 303 ft | 3 kts | 182° |
| 2026-05-07 11:11 | 14.67131 | -17.06978 | 303 ft | 2 kts | 179° |
| 2026-05-07 11:12 | 14.67134 | -17.06978 | 303 ft | 0 kts | 179° |
| 2026-05-07 11:14 | 14.67109 | -17.06979 | 303 ft | 6 kts | 189° |
| 2026-05-07 11:15 | 14.67082 | -17.07008 | 303 ft | 6 kts | 256° |
| 2026-05-07 11:15 | 14.67077 | -17.07059 | 303 ft | 7 kts | 255° |
| 2026-05-07 11:15 | 14.67029 | -17.07089 | 303 ft | 10 kts | 183° |
| 2026-05-07 11:15 | 14.66942 | -17.07089 | 303 ft | 13 kts | 179° |
| 2026-05-07 11:16 | 14.66851 | -17.07088 | 303 ft | 13 kts | 179° |
| 2026-05-07 11:16 | 14.66764 | -17.07087 | 303 ft | 12 kts | 179° |
| 2026-05-07 11:16 | 14.66671 | -17.07087 | 303 ft | 18 kts | 179° |
| 2026-05-07 11:16 | 14.66511 | -17.07085 | 303 ft | 25 kts | 179° |
| 2026-05-07 11:17 | 14.66349 | -17.07083 | 303 ft | 23 kts | 179° |
| 2026-05-07 11:17 | 14.66195 | -17.07082 | 303 ft | 22 kts | 179° |
| 2026-05-07 11:17 | 14.66048 | -17.07081 | 303 ft | 21 kts | 179° |
| 2026-05-07 11:17 | 14.65907 | -17.07080 | 303 ft | 20 kts | 179° |
| 2026-05-07 11:18 | 14.65773 | -17.07078 | 303 ft | 19 kts | 179° |
| 2026-05-07 11:18 | 14.65663 | -17.07077 | 303 ft | 12 kts | 179° |
| 2026-05-07 11:18 | 14.65579 | -17.07076 | 303 ft | 11 kts | 182° |
| 2026-05-07 11:18 | 14.65530 | -17.07117 | 303 ft | 10 kts | 256° |
| 2026-05-07 11:19 | 14.65528 | -17.07185 | 303 ft | 9 kts | 270° |
| 2026-05-07 11:19 | 14.65535 | -17.07247 | 303 ft | 9 kts | 301° |
| 2026-05-07 11:19 | 14.65589 | -17.07269 | 303 ft | 7 kts | 1° |
| 2026-05-07 11:19 | 14.65653 | -17.07269 | 303 ft | 18 kts | 359° |
| 2026-05-07 11:20 | 14.65992 | -17.07271 | 303 ft | 85 kts | 359° |
| 2026-05-07 11:20 | 14.66813 | -17.07278 | 303 ft | 149 kts | 359° |
| 2026-05-07 11:20 | 14.67976 | -17.07296 | 604 ft | 172 kts | 360° |
| 2026-05-07 11:20 | 14.69188 | -17.07305 | 1328 ft | 176 kts | 0° |
| 2026-05-07 11:21 | 14.70423 | -17.07328 | 2126 ft | 178 kts | 359° |
| 2026-05-07 11:21 | 14.71663 | -17.07369 | 2824 ft | 181 kts | 359° |
| 2026-05-07 11:21 | 14.72938 | -17.07374 | 3432 ft | 185 kts | 0° |
| 2026-05-07 11:21 | 14.74263 | -17.07369 | 3953 ft | 196 kts | 359° |
| 2026-05-07 11:22 | 14.75659 | -17.07383 | 4478 ft | 205 kts | 359° |
| 2026-05-07 11:22 | 14.77075 | -17.07391 | 5192 ft | 203 kts | 360° |
| 2026-05-07 11:22 | 14.78506 | -17.07384 | 5741 ft | 210 kts | 360° |
| 2026-05-07 11:22 | 14.79977 | -17.07254 | 6275 ft | 214 kts | 10° |
| 2026-05-07 11:23 | 14.81370 | -17.06725 | 6895 ft | 214 kts | 30° |
| 2026-05-07 11:23 | 14.82359 | -17.05578 | 7362 ft | 219 kts | 60° |
| 2026-05-07 11:23 | 14.82727 | -17.04036 | 7803 ft | 226 kts | 87° |
| 2026-05-07 11:23 | 14.82630 | -17.02399 | 8274 ft | 234 kts | 95° |
| 2026-05-07 11:24 | 14.82478 | -17.00642 | 8452 ft | 257 kts | 95° |
| 2026-05-07 11:24 | 14.82303 | -16.98712 | 8608 ft | 281 kts | 95° |
| 2026-05-07 11:24 | 14.82229 | -16.96660 | 9157 ft | 289 kts | 90° |
| 2026-05-07 11:24 | 14.82281 | -16.94563 | 9835 ft | 294 kts | 88° |
| 2026-05-07 11:25 | 14.82374 | -16.92452 | 10551 ft | 294 kts | 89° |
| 2026-05-07 11:25 | 14.82051 | -16.90341 | 11038 ft | 305 kts | 112° |
| 2026-05-07 11:25 | 14.80881 | -16.88486 | 11581 ft | 316 kts | 135° |
| 2026-05-07 11:25 | 14.79037 | -16.87209 | 12123 ft | 325 kts | 157° |
| 2026-05-07 11:26 | 14.76824 | -16.86527 | 12627 ft | 340 kts | 171° |
| 2026-05-07 11:26 | 14.74384 | -16.86300 | 12826 ft | 363 kts | 180° |
| 2026-05-07 11:26 | 14.71790 | -16.86346 | 13171 ft | 382 kts | 183° |
| 2026-05-07 11:26 | 14.69093 | -16.86473 | 13758 ft | 392 kts | 184° |
| 2026-05-07 11:27 | 14.66340 | -16.86569 | 14468 ft | 399 kts | 182° |
| 2026-05-07 11:27 | 14.63546 | -16.86608 | 15262 ft | 404 kts | 181° |
| 2026-05-07 11:27 | 14.60719 | -16.86597 | 16009 ft | 409 kts | 181° |
| 2026-05-07 11:27 | 14.57854 | -16.86560 | 16720 ft | 414 kts | 181° |
| 2026-05-07 11:28 | 14.54956 | -16.86525 | 17409 ft | 419 kts | 181° |
| 2026-05-07 11:28 | 14.52065 | -16.86494 | 18072 ft | 424 kts | 181° |
| 2026-05-07 11:28 | 14.49103 | -16.86465 | 18756 ft | 427 kts | 181° |
| 2026-05-07 11:28 | 14.46121 | -16.86437 | 19429 ft | 431 kts | 181° |
| 2026-05-07 11:29 | 14.43109 | -16.86408 | 20066 ft | 434 kts | 181° |
| 2026-05-07 11:29 | 14.40076 | -16.86380 | 20686 ft | 438 kts | 181° |
| 2026-05-07 11:29 | 14.37014 | -16.86352 | 21290 ft | 441 kts | 181° |
| 2026-05-07 11:29 | 14.33931 | -16.86323 | 21871 ft | 445 kts | 181° |
| 2026-05-07 11:30 | 14.30825 | -16.86293 | 22424 ft | 448 kts | 181° |
| 2026-05-07 11:30 | 14.27697 | -16.86263 | 22971 ft | 451 kts | 181° |
| 2026-05-07 11:30 | 14.24544 | -16.86233 | 23508 ft | 454 kts | 181° |
| 2026-05-07 11:30 | 14.21374 | -16.86202 | 24036 ft | 457 kts | 181° |
| 2026-05-07 11:31 | 14.18185 | -16.86172 | 24534 ft | 459 kts | 182° |
| 2026-05-07 11:31 | 14.14984 | -16.86141 | 25057 ft | 461 kts | 182° |
| 2026-05-07 11:31 | 14.11770 | -16.86110 | 25564 ft | 463 kts | 182° |
| 2026-05-07 11:31 | 14.08539 | -16.86079 | 26025 ft | 465 kts | 183° |
| 2026-05-07 11:32 | 14.02039 | -16.85529 | 26855 ft | 475 kts | 174° |
| 2026-05-07 11:32 | 13.98792 | -16.84870 | 27317 ft | 477 kts | 172° |
| 2026-05-07 11:32 | 13.95551 | -16.84090 | 27766 ft | 480 kts | 170° |
| 2026-05-07 11:33 | 13.92313 | -16.83197 | 28140 ft | 484 kts | 169° |
| 2026-05-07 11:33 | 13.89067 | -16.82232 | 28525 ft | 486 kts | 168° |
| 2026-05-07 11:33 | 13.85815 | -16.81251 | 28894 ft | 488 kts | 168° |
| 2026-05-07 11:33 | 13.82545 | -16.80272 | 29241 ft | 491 kts | 169° |
| 2026-05-07 11:34 | 13.79257 | -16.79292 | 29574 ft | 493 kts | 169° |
| 2026-05-07 11:34 | 13.75956 | -16.78311 | 29889 ft | 495 kts | 169° |
| 2026-05-07 11:34 | 13.72650 | -16.77330 | 30339 ft | 494 kts | 169° |
| 2026-05-07 11:34 | 13.69360 | -16.76354 | 30843 ft | 491 kts | 169° |
| 2026-05-07 11:35 | 13.66078 | -16.75379 | 31287 ft | 491 kts | 169° |
| 2026-05-07 11:35 | 13.62803 | -16.74404 | 31726 ft | 490 kts | 169° |
| 2026-05-07 11:35 | 13.59533 | -16.73433 | 32162 ft | 488 kts | 169° |
| 2026-05-07 11:35 | 13.56276 | -16.72468 | 32622 ft | 487 kts | 169° |
| 2026-05-07 11:36 | 13.53026 | -16.71506 | 33026 ft | 486 kts | 169° |
| 2026-05-07 11:36 | 13.49784 | -16.70547 | 33479 ft | 484 kts | 169° |
| 2026-05-07 11:36 | 13.46553 | -16.69591 | 33855 ft | 483 kts | 169° |
| 2026-05-07 11:36 | 13.43325 | -16.68636 | 34229 ft | 482 kts | 169° |
| 2026-05-07 11:37 | 13.40099 | -16.67682 | 34570 ft | 483 kts | 169° |
| 2026-05-07 11:37 | 13.36926 | -16.66696 | 34861 ft | 484 kts | 166° |
| 2026-05-07 11:37 | 13.33802 | -16.65378 | 34906 ft | 488 kts | 159° |
| 2026-05-07 11:38 | 13.28117 | -16.61459 | 34905 ft | 498 kts | 146° |
| 2026-05-07 11:38 | 13.22826 | -16.56817 | 34906 ft | 502 kts | 145° |
| 2026-05-07 11:39 | 13.17450 | -16.52236 | 34906 ft | 502 kts | 146° |
| 2026-05-07 11:39 | 13.12007 | -16.47742 | 34906 ft | 502 kts | 146° |
| 2026-05-07 11:40 | 13.06566 | -16.43273 | 34905 ft | 500 kts | 146° |
| 2026-05-07 11:40 | 13.01141 | -16.38807 | 34905 ft | 500 kts | 146° |
| 2026-05-07 11:41 | 12.95712 | -16.34349 | 34905 ft | 500 kts | 146° |
| 2026-05-07 11:41 | 12.90285 | -16.29899 | 34905 ft | 499 kts | 146° |
| 2026-05-07 11:42 | 12.84866 | -16.25458 | 34905 ft | 499 kts | 146° |
| 2026-05-07 11:42 | 12.79446 | -16.21019 | 34904 ft | 499 kts | 146° |
| 2026-05-07 11:43 | 12.74027 | -16.16583 | 34904 ft | 499 kts | 146° |
| 2026-05-07 11:43 | 12.68611 | -16.12152 | 34904 ft | 498 kts | 146° |
| 2026-05-07 11:44 | 12.63205 | -16.07724 | 34904 ft | 497 kts | 146° |
| 2026-05-07 11:44 | 12.57797 | -16.03305 | 34904 ft | 497 kts | 146° |
| 2026-05-07 11:45 | 12.52395 | -15.98897 | 34904 ft | 497 kts | 146° |
| 2026-05-07 11:45 | 12.46993 | -15.94489 | 34904 ft | 497 kts | 146° |
| 2026-05-07 11:46 | 12.41585 | -15.90080 | 34904 ft | 497 kts | 146° |
| 2026-05-07 11:46 | 12.36154 | -15.85717 | 34903 ft | 496 kts | 146° |
| 2026-05-07 11:47 | 12.30728 | -15.81357 | 34902 ft | 496 kts | 146° |
| 2026-05-07 11:47 | 12.25307 | -15.76999 | 34902 ft | 496 kts | 146° |
| 2026-05-07 11:48 | 12.19886 | -15.72642 | 34903 ft | 495 kts | 146° |
| 2026-05-07 11:48 | 12.14470 | -15.68285 | 34903 ft | 496 kts | 146° |
| 2026-05-07 11:49 | 12.09093 | -15.63954 | 34903 ft | 496 kts | 146° |
| 2026-05-07 11:49 | 12.03674 | -15.59598 | 34904 ft | 496 kts | 146° |
| 2026-05-07 11:50 | 11.98251 | -15.55243 | 34905 ft | 496 kts | 146° |
| 2026-05-07 11:50 | 11.93706 | -15.51595 | 34905 ft | 496 kts | 146° |
| 2026-05-07 11:51 | 11.88282 | -15.47243 | 34904 ft | 496 kts | 146° |
| 2026-05-07 11:51 | 11.82860 | -15.42897 | 34904 ft | 496 kts | 146° |
| 2026-05-07 11:52 | 11.77438 | -15.38551 | 34904 ft | 496 kts | 145° |
| 2026-05-07 11:52 | 11.72050 | -15.34236 | 34903 ft | 496 kts | 146° |
| 2026-05-07 11:53 | 11.66627 | -15.29894 | 34903 ft | 496 kts | 145° |
| 2026-05-07 11:53 | 11.61201 | -15.25553 | 34902 ft | 496 kts | 145° |
| 2026-05-07 11:54 | 11.55773 | -15.21212 | 34902 ft | 496 kts | 145° |
| 2026-05-07 11:54 | 11.50340 | -15.16869 | 34901 ft | 496 kts | 145° |
| 2026-05-07 11:55 | 11.44906 | -15.12527 | 34901 ft | 496 kts | 145° |
| 2026-05-07 11:55 | 11.39475 | -15.08185 | 34900 ft | 496 kts | 145° |
| 2026-05-07 11:56 | 11.34039 | -15.03844 | 34900 ft | 496 kts | 145° |
| 2026-05-07 11:56 | 11.28603 | -14.99510 | 34899 ft | 496 kts | 145° |
| 2026-05-07 11:57 | 11.23170 | -14.95180 | 34902 ft | 496 kts | 145° |
| 2026-05-07 11:57 | 11.17738 | -14.90853 | 34903 ft | 496 kts | 145° |
| 2026-05-07 11:58 | 11.12291 | -14.86547 | 34903 ft | 496 kts | 145° |
| 2026-05-07 11:58 | 11.06854 | -14.82281 | 34902 ft | 491 kts | 145° |
| 2026-05-07 11:59 | 11.01420 | -14.78012 | 34902 ft | 495 kts | 145° |
| 2026-05-07 11:59 | 10.95962 | -14.73724 | 34902 ft | 496 kts | 145° |
| 2026-05-07 12:00 | 10.90518 | -14.69432 | 34902 ft | 495 kts | 145° |
| 2026-05-07 12:00 | 10.85078 | -14.65159 | 34902 ft | 494 kts | 145° |
| 2026-05-07 12:01 | 10.79642 | -14.60893 | 34902 ft | 493 kts | 145° |
| 2026-05-07 12:01 | 10.74210 | -14.56633 | 34902 ft | 493 kts | 145° |
| 2026-05-07 12:02 | 10.68788 | -14.52372 | 34902 ft | 492 kts | 144° |
| 2026-05-07 12:02 | 10.63490 | -14.47962 | 34902 ft | 492 kts | 142° |
| 2026-05-07 12:03 | 10.58215 | -14.43515 | 34902 ft | 492 kts | 143° |
| 2026-05-07 12:03 | 10.52935 | -14.39101 | 34902 ft | 491 kts | 143° |
| 2026-05-07 12:04 | 10.47660 | -14.34701 | 34903 ft | 490 kts | 143° |
| 2026-05-07 12:04 | 10.42428 | -14.30338 | 34903 ft | 490 kts | 143° |
| 2026-05-07 12:05 | 10.37169 | -14.25947 | 34903 ft | 489 kts | 143° |
| 2026-05-07 12:05 | 10.31913 | -14.21561 | 34903 ft | 489 kts | 143° |
| 2026-05-07 12:06 | 10.26658 | -14.17184 | 34903 ft | 488 kts | 143° |
| 2026-05-07 12:06 | 10.21410 | -14.12818 | 34903 ft | 487 kts | 143° |
| 2026-05-07 12:07 | 10.16164 | -14.08456 | 34652 ft | 488 kts | 143° |
| 2026-05-07 12:07 | 10.13532 | -14.06268 | 34068 ft | 487 kts | 143° |
| 2026-05-07 12:07 | 10.10922 | -14.04099 | 33419 ft | 484 kts | 143° |
| 2026-05-07 12:07 | 10.08313 | -14.01939 | 32751 ft | 484 kts | 143° |
| 2026-05-07 12:08 | 10.05658 | -13.99843 | 32066 ft | 483 kts | 145° |
| 2026-05-07 12:08 | 10.02979 | -13.97795 | 31377 ft | 482 kts | 145° |
| 2026-05-07 12:08 | 10.00298 | -13.95747 | 30672 ft | 483 kts | 145° |
| 2026-05-07 12:08 | 9.97628 | -13.93689 | 30061 ft | 481 kts | 145° |
| 2026-05-07 12:09 | 9.94979 | -13.91638 | 29477 ft | 478 kts | 144° |
| 2026-05-07 12:09 | 9.92345 | -13.89594 | 28869 ft | 475 kts | 144° |
| 2026-05-07 12:09 | 9.89725 | -13.87558 | 28264 ft | 473 kts | 144° |
| 2026-05-07 12:09 | 9.87123 | -13.85536 | 27666 ft | 470 kts | 144° |
| 2026-05-07 12:10 | 9.84534 | -13.83524 | 27061 ft | 468 kts | 144° |
| 2026-05-07 12:10 | 9.81959 | -13.81520 | 26468 ft | 466 kts | 144° |
| 2026-05-07 12:10 | 9.79399 | -13.79521 | 25882 ft | 463 kts | 144° |
| 2026-05-07 12:10 | 9.76851 | -13.77538 | 25299 ft | 461 kts | 143° |
| 2026-05-07 12:11 | 9.74310 | -13.75563 | 24700 ft | 459 kts | 143° |
| 2026-05-07 12:11 | 9.71783 | -13.73600 | 24119 ft | 457 kts | 143° |
| 2026-05-07 12:11 | 9.69263 | -13.71643 | 23533 ft | 455 kts | 143° |
| 2026-05-07 12:11 | 9.66756 | -13.69698 | 22978 ft | 452 kts | 143° |
| 2026-05-07 12:12 | 9.64264 | -13.67763 | 22407 ft | 450 kts | 143° |
| 2026-05-07 12:12 | 9.61775 | -13.65832 | 21744 ft | 450 kts | 143° |
| 2026-05-07 12:12 | 9.59295 | -13.63924 | 21190 ft | 445 kts | 144° |
| 2026-05-07 12:12 | 9.56713 | -13.62216 | 20654 ft | 441 kts | 150° |
| 2026-05-07 12:13 | 9.54036 | -13.60720 | 20122 ft | 438 kts | 153° |
| 2026-05-07 12:13 | 9.51334 | -13.59348 | 19703 ft | 431 kts | 154° |
| 2026-05-07 12:13 | 9.48662 | -13.58080 | 19177 ft | 428 kts | 155° |
| 2026-05-07 12:13 | 9.45968 | -13.56831 | 18644 ft | 425 kts | 155° |
| 2026-05-07 12:14 | 9.43294 | -13.55584 | 18118 ft | 421 kts | 155° |
| 2026-05-07 12:14 | 9.40644 | -13.54342 | 17594 ft | 418 kts | 155° |
| 2026-05-07 12:14 | 9.38016 | -13.53106 | 17067 ft | 415 kts | 155° |
| 2026-05-07 12:14 | 9.35412 | -13.51879 | 16544 ft | 411 kts | 154° |
| 2026-05-07 12:15 | 9.32828 | -13.50657 | 16024 ft | 408 kts | 154° |
| 2026-05-07 12:15 | 9.30271 | -13.49450 | 15515 ft | 404 kts | 154° |
| 2026-05-07 12:15 | 9.27736 | -13.48254 | 15007 ft | 400 kts | 154° |
| 2026-05-07 12:15 | 9.25225 | -13.47069 | 14494 ft | 396 kts | 154° |
| 2026-05-07 12:16 | 9.22734 | -13.45897 | 13989 ft | 393 kts | 153° |
| 2026-05-07 12:16 | 9.20269 | -13.44736 | 13473 ft | 389 kts | 153° |
| 2026-05-07 12:16 | 9.17827 | -13.43585 | 12952 ft | 386 kts | 153° |
| 2026-05-07 12:16 | 9.15413 | -13.42448 | 12459 ft | 374 kts | 153° |
| 2026-05-07 12:17 | 9.13066 | -13.41343 | 11961 ft | 371 kts | 152° |
| 2026-05-07 12:17 | 9.10736 | -13.40241 | 11449 ft | 367 kts | 152° |
| 2026-05-07 12:17 | 9.08532 | -13.38975 | 10950 ft | 363 kts | 144° |
| 2026-05-07 12:17 | 9.06497 | -13.37485 | 10522 ft | 358 kts | 141° |
| 2026-05-07 12:18 | 9.04577 | -13.35955 | 10420 ft | 345 kts | 139° |
| 2026-05-07 12:18 | 9.02779 | -13.34427 | 10330 ft | 332 kts | 137° |
| 2026-05-07 12:18 | 9.01087 | -13.32902 | 10242 ft | 320 kts | 136° |
| 2026-05-07 12:18 | 8.99487 | -13.31400 | 10158 ft | 308 kts | 135° |
| 2026-05-07 12:19 | 8.97953 | -13.29940 | 10074 ft | 297 kts | 134° |
| 2026-05-07 12:19 | 8.96475 | -13.28526 | 9992 ft | 287 kts | 134° |
| 2026-05-07 12:19 | 8.95058 | -13.27169 | 9976 ft | 275 kts | 134° |
| 2026-05-07 12:19 | 8.93677 | -13.25845 | 9951 ft | 273 kts | 134° |
| 2026-05-07 12:20 | 8.92302 | -13.24526 | 9685 ft | 272 kts | 134° |
| 2026-05-07 12:20 | 8.90934 | -13.23213 | 9383 ft | 271 kts | 134° |
| 2026-05-07 12:20 | 8.89570 | -13.21904 | 9083 ft | 270 kts | 134° |
| 2026-05-07 12:20 | 8.88214 | -13.20600 | 8787 ft | 269 kts | 134° |
| 2026-05-07 12:21 | 8.86864 | -13.19298 | 8494 ft | 267 kts | 135° |
| 2026-05-07 12:21 | 8.85519 | -13.18004 | 8204 ft | 266 kts | 135° |
| 2026-05-07 12:21 | 8.84200 | -13.16734 | 7921 ft | 265 kts | 135° |
| 2026-05-07 12:21 | 8.82866 | -13.15454 | 7634 ft | 264 kts | 135° |
| 2026-05-07 12:22 | 8.81521 | -13.14162 | 7345 ft | 263 kts | 135° |
| 2026-05-07 12:22 | 8.80181 | -13.12876 | 7062 ft | 270 kts | 135° |
| 2026-05-07 12:22 | 8.78817 | -13.11567 | 6946 ft | 266 kts | 135° |
| 2026-05-07 12:22 | 8.77479 | -13.10280 | 6535 ft | 267 kts | 135° |
| 2026-05-07 12:23 | 8.76129 | -13.08987 | 6182 ft | 267 kts | 136° |
| 2026-05-07 12:23 | 8.74786 | -13.07699 | 5883 ft | 265 kts | 136° |
| 2026-05-07 12:23 | 8.73457 | -13.06426 | 5607 ft | 261 kts | 136° |
| 2026-05-07 12:23 | 8.72164 | -13.05186 | 5338 ft | 258 kts | 136° |
| 2026-05-07 12:24 | 8.70851 | -13.03927 | 5062 ft | 255 kts | 136° |
| 2026-05-07 12:24 | 8.69572 | -13.02699 | 4792 ft | 252 kts | 136° |
| 2026-05-07 12:24 | 8.68331 | -13.01509 | 4588 ft | 246 kts | 136° |
| 2026-05-07 12:24 | 8.67107 | -13.00337 | 4362 ft | 240 kts | 136° |
| 2026-05-07 12:25 | 8.65877 | -12.99202 | 4078 ft | 236 kts | 141° |
| 2026-05-07 12:25 | 8.64445 | -12.98504 | 3907 ft | 225 kts | 168° |
| 2026-05-07 12:25 | 8.62949 | -12.98500 | 3855 ft | 210 kts | 187° |
| 2026-05-07 12:25 | 8.61564 | -12.98843 | 3710 ft | 200 kts | 197° |
| 2026-05-07 12:26 | 8.60273 | -12.99280 | 3611 ft | 192 kts | 200° |
| 2026-05-07 12:26 | 8.59025 | -12.99704 | 3540 ft | 185 kts | 199° |
| 2026-05-07 12:26 | 8.57827 | -13.00127 | 3481 ft | 180 kts | 203° |
| 2026-05-07 12:26 | 8.56888 | -13.00926 | 3367 ft | 181 kts | 238° |
| 2026-05-07 12:27 | 8.56661 | -13.02159 | 3294 ft | 181 kts | 271° |
| 2026-05-07 12:27 | 8.56857 | -13.03421 | 3054 ft | 182 kts | 280° |
| 2026-05-07 12:27 | 8.57131 | -13.04666 | 2796 ft | 181 kts | 284° |
| 2026-05-07 12:27 | 8.57473 | -13.05878 | 2551 ft | 178 kts | 286° |
| 2026-05-07 12:28 | 8.57835 | -13.07065 | 2314 ft | 177 kts | 286° |
| 2026-05-07 12:28 | 8.58196 | -13.08246 | 2089 ft | 174 kts | 286° |
| 2026-05-07 12:28 | 8.58548 | -13.09401 | 1883 ft | 170 kts | 286° |
| 2026-05-07 12:28 | 8.58893 | -13.10530 | 1638 ft | 164 kts | 285° |
| 2026-05-07 12:29 | 8.59218 | -13.11597 | 1446 ft | 155 kts | 285° |
| 2026-05-07 12:29 | 8.59532 | -13.12625 | 1251 ft | 152 kts | 284° |
| 2026-05-07 12:29 | 8.59839 | -13.13632 | 1013 ft | 149 kts | 284° |
| 2026-05-07 12:29 | 8.60141 | -13.14622 | 821 ft | 147 kts | 284° |
| 2026-05-07 12:30 | 8.60442 | -13.15613 | 634 ft | 148 kts | 284° |
| 2026-05-07 12:30 | 8.60748 | -13.16605 | 442 ft | 148 kts | 285° |
| 2026-05-07 12:30 | 8.61045 | -13.17597 | 241 ft | 147 kts | 285° |
| 2026-05-07 12:30 | 8.61348 | -13.18578 | 110 ft | 140 kts | 285° |
| 2026-05-07 12:31 | 8.61588 | -13.19364 | 107 ft | 86 kts | 288° |
| 2026-05-07 12:31 | 8.61702 | -13.19741 | 107 ft | 40 kts | 287° |
| 2026-05-07 12:31 | 8.61771 | -13.19965 | 107 ft | 28 kts | 287° |
| 2026-05-07 12:31 | 8.61808 | -13.20088 | 107 ft | 10 kts | 285° |
| 2026-05-07 12:32 | 8.61836 | -13.20128 | 107 ft | 7 kts | 349° |
| 2026-05-07 12:32 | 8.61880 | -13.20124 | 107 ft | 6 kts | 12° |
| 2026-05-07 12:32 | 8.61933 | -13.20108 | 107 ft | 8 kts | 20° |
| 2026-05-07 12:32 | 8.61967 | -13.20067 | 107 ft | 8 kts | 88° |
| 2026-05-07 12:33 | 8.61938 | -13.19953 | 107 ft | 11 kts | 107° |
| 2026-05-07 12:33 | 8.61913 | -13.19868 | 107 ft | 14 kts | 107° |
| 2026-05-07 12:33 | 8.61880 | -13.19761 | 107 ft | 18 kts | 107° |
| 2026-05-07 12:34 | 8.61841 | -13.19635 | 107 ft | 19 kts | 107° |
| 2026-05-07 12:34 | 8.61803 | -13.19510 | 107 ft | 18 kts | 107° |
| 2026-05-07 12:34 | 8.61767 | -13.19391 | 107 ft | 17 kts | 107° |
| 2026-05-07 12:34 | 8.61732 | -13.19279 | 107 ft | 16 kts | 107° |
| 2026-05-07 12:35 | 8.61700 | -13.19173 | 107 ft | 15 kts | 107° |
| 2026-05-07 12:35 | 8.61670 | -13.19073 | 107 ft | 14 kts | 107° |
| 2026-05-07 12:35 | 8.61641 | -13.18980 | 107 ft | 13 kts | 107° |
| 2026-05-07 12:35 | 8.61615 | -13.18895 | 107 ft | 10 kts | 107° |
| 2026-05-07 12:36 | 8.61595 | -13.18829 | 107 ft | 9 kts | 107° |
| 2026-05-07 12:36 | 8.61584 | -13.18777 | 107 ft | 6 kts | 80° |
| 2026-05-07 12:36 | 8.61612 | -13.18745 | 107 ft | 5 kts | 31° |
| 2026-05-07 12:36 | 8.61645 | -13.18733 | 107 ft | 5 kts | 15° |
| 2026-05-07 12:37 | 8.61669 | -13.18726 | 107 ft | 3 kts | 16° |
| 2026-05-07 12:37 | 8.61685 | -13.18722 | 107 ft | 2 kts | 17° |
| 2026-05-07 12:37 | 8.61696 | -13.18718 | 107 ft | 1 kts | 17° |
| 2026-05-07 12:37 | 8.61697 | -13.18718 | 107 ft | 0 kts | 17° |